Time;durP1;ratioP1;P1;durP2;ratioP2;P2;SDS_P1;SDS_P2;PMS_P1;PMS_P2;Temp;Humidity;BMP_temperature;BMP_pressure;BME280_temperature;BME280_humidity;BME280_pressure;Samples;Min_cycle;Max_cycle;Signal;HPM_P1;HPM_P2
2022/10/19 00:00:25;;;;;;;53.55;40.60;;;18.60;1.00;;;;;;5052847;28;20051;-67
2022/10/19 00:02:51;;;;;;;52.53;40.83;;;18.60;1.00;;;;;;5053411;28;20036;-67
2022/10/19 00:05:17;;;;;;;51.95;39.08;;;18.60;1.00;;;;;;5050979;28;20048;-67
2022/10/19 00:07:42;;;;;;;57.92;40.97;;;18.60;1.00;;;;;;5046987;28;20032;-67
2022/10/19 00:10:08;;;;;;;49.25;39.78;;;18.60;1.00;;;;;;5048426;28;20108;-67
2022/10/19 00:12:34;;;;;;;52.80;39.58;;;18.60;1.00;;;;;;5053857;28;20036;-67
2022/10/19 00:15:00;;;;;;;51.58;39.13;;;18.60;1.00;;;;;;5052336;28;20191;-68
2022/10/19 00:17:25;;;;;;;50.80;37.65;;;18.60;1.00;;;;;;5048792;28;20037;-67
2022/10/19 00:19:51;;;;;;;53.20;36.53;;;18.50;1.00;;;;;;5047540;28;20036;-67
2022/10/19 00:22:16;;;;;;;50.65;38.53;;;18.50;1.00;;;;;;5042151;28;20028;-67
2022/10/19 00:24:42;;;;;;;55.47;40.00;;;18.50;1.00;;;;;;5053238;28;20108;-67
2022/10/19 00:27:08;;;;;;;55.28;39.70;;;18.50;1.00;;;;;;5052343;28;20024;-67
2022/10/19 00:29:34;;;;;;;50.88;37.95;;;18.50;1.00;;;;;;5053470;28;20127;-68
2022/10/19 00:32:00;;;;;;;49.88;36.40;;;18.50;1.00;;;;;;5040854;28;20509;-67
2022/10/19 00:34:25;;;;;;;54.40;37.55;;;18.50;1.00;;;;;;5053038;28;20463;-68
2022/10/19 00:36:51;;;;;;;56.70;39.08;;;18.50;1.00;;;;;;5046961;28;20136;-68
2022/10/19 00:39:17;;;;;;;48.75;37.75;;;18.40;1.00;;;;;;5050969;28;20390;-68
2022/10/19 00:41:45;;;;;;;43.60;35.88;;;18.50;1.00;;;;;;5044773;28;20036;-68
2022/10/19 00:44:10;;;;;;;51.47;36.22;;;18.40;1.00;;;;;;5042454;28;20032;-67
2022/10/19 00:46:38;;;;;;;48.85;34.53;;;18.40;1.00;;;;;;5047632;28;20045;-67
2022/10/19 00:49:08;;;;;;;51.42;36.40;;;18.40;1.00;;;;;;5038839;28;20037;-67
2022/10/19 00:51:38;;;;;;;45.47;35.17;;;18.40;1.00;;;;;;5052274;28;20033;-67
2022/10/19 00:54:05;;;;;;;45.97;33.30;;;18.40;1.00;;;;;;5053145;28;20479;-67
2022/10/19 00:56:32;;;;;;;38.90;31.83;;;18.40;1.00;;;;;;5045344;28;20392;-67
2022/10/19 00:58:57;;;;;;;42.88;32.05;;;18.40;1.00;;;;;;5045763;28;20021;-67
2022/10/19 01:01:26;;;;;;;42.10;32.40;;;18.30;1.00;;;;;;5048371;28;20025;-67
2022/10/19 01:03:52;;;;;;;44.33;31.55;;;18.30;1.00;;;;;;5053123;28;20025;-68
2022/10/19 01:06:18;;;;;;;41.88;31.52;;;18.30;1.00;;;;;;5049672;28;20375;-68
2022/10/19 01:08:45;;;;;;;39.30;32.20;;;18.30;1.00;;;;;;5047594;28;20033;-68
2022/10/19 01:11:44;;;;;;;41.45;31.13;;;18.30;1.00;;;;;;5047602;28;20483;-67
2022/10/19 01:14:09;;;;;;;39.03;31.17;;;18.30;1.00;;;;;;5052756;28;20053;-68
2022/10/19 01:17:05;;;;;;;38.80;29.83;;;18.30;1.00;;;;;;5051309;28;20558;-68
2022/10/19 01:19:55;;;;;;;37.88;30.27;;;18.30;1.00;;;;;;5061184;28;20025;-68
2022/10/19 01:22:56;;;;;;;41.55;31.73;;;18.30;1.00;;;;;;5048475;28;20025;-68
2022/10/19 01:25:37;;;;;;;39.45;30.55;;;18.20;1.00;;;;;;5008800;28;20435;-68
2022/10/19 01:28:08;;;;;;;40.08;30.30;;;18.20;1.00;;;;;;5042052;28;20029;-68
2022/10/19 01:30:34;;;;;;;40.00;30.63;;;18.20;1.00;;;;;;5038387;28;20053;-68
2022/10/19 01:33:14;;;;;;;40.47;30.77;;;18.20;1.00;;;;;;5052762;28;20114;-68
2022/10/19 01:36:07;;;;;;;38.72;30.15;;;18.20;1.00;;;;;;5051754;28;20056;-68
2022/10/19 01:38:46;;;;;;;41.08;31.38;;;18.20;1.00;;;;;;5044795;28;20041;-67
2022/10/19 01:41:27;;;;;;;40.25;29.88;;;18.20;1.00;;;;;;5046261;28;20025;-68
2022/10/19 01:44:11;;;;;;;40.55;31.35;;;18.20;1.00;;;;;;5050688;28;20021;-67
2022/10/19 01:46:43;;;;;;;40.92;31.05;;;18.20;1.00;;;;;;5050569;28;20036;-68
2022/10/19 01:49:32;;;;;;;37.70;31.23;;;18.10;1.00;;;;;;5044206;28;20483;-67
2022/10/19 01:52:03;;;;;;;46.13;31.17;;;18.20;1.00;;;;;;5043018;28;20082;-67
2022/10/19 01:54:35;;;;;;;41.33;31.60;;;18.10;1.00;;;;;;5051636;28;20183;-68
2022/10/19 01:57:03;;;;;;;43.67;32.95;;;18.20;1.00;;;;;;5046100;28;20517;-68
2022/10/19 01:59:38;;;;;;;45.88;32.60;;;18.10;1.00;;;;;;5042830;28;20025;-68
2022/10/19 02:02:08;;;;;;;38.90;30.05;;;18.10;1.00;;;;;;5055092;28;20036;-68
2022/10/19 02:04:35;;;;;;;41.72;31.25;;;18.10;1.00;;;;;;5036328;28;20462;-68
2022/10/19 02:07:03;;;;;;;39.00;28.65;;;18.10;1.00;;;;;;5035610;28;20029;-67
2022/10/19 02:09:29;;;;;;;39.20;30.90;;;18.10;1.00;;;;;;5053618;28;20106;-67
2022/10/19 02:11:58;;;;;;;38.55;29.77;;;18.10;1.00;;;;;;5047588;28;20490;-67
2022/10/19 02:14:28;;;;;;;36.55;29.80;;;18.10;1.00;;;;;;5041629;28;20486;-67
2022/10/19 02:17:05;;;;;;;38.75;29.80;;;18.10;1.00;;;;;;5035622;28;20454;-67
2022/10/19 02:19:31;;;;;;;38.47;28.50;;;18.10;1.00;;;;;;5051874;28;20533;-68
2022/10/19 02:21:57;;;;;;;37.15;29.27;;;18.00;1.00;;;;;;5053364;28;20075;-68
2022/10/19 02:24:23;;;;;;;37.95;29.60;;;18.00;1.00;;;;;;5055744;28;20025;-68
2022/10/19 02:26:50;;;;;;;38.20;30.27;;;18.00;1.00;;;;;;5054752;28;20082;-68
2022/10/19 02:29:16;;;;;;;37.95;30.05;;;18.00;1.00;;;;;;5037132;28;20467;-67
2022/10/19 02:31:42;;;;;;;35.60;27.75;;;18.00;1.00;;;;;;5039418;28;20076;-67
2022/10/19 02:34:09;;;;;;;37.67;29.98;;;18.00;1.00;;;;;;5050233;28;20029;-67
2022/10/19 02:36:34;;;;;;;41.10;29.77;;;18.00;1.00;;;;;;5049794;28;20033;-67
2022/10/19 02:39:00;;;;;;;39.80;29.92;;;18.00;1.00;;;;;;5054746;28;20028;-67
2022/10/19 02:41:38;;;;;;;36.42;29.30;;;18.00;1.00;;;;;;5046266;28;20037;-68
2022/10/19 02:44:13;;;;;;;37.22;28.98;;;18.00;1.00;;;;;;5054505;28;20386;-68
2022/10/19 02:46:52;;;;;;;40.72;28.98;;;17.90;1.00;;;;;;5053971;28;20474;-67
2022/10/19 02:49:18;;;;;;;36.45;28.13;;;17.90;1.00;;;;;;5054319;28;20033;-68
2022/10/19 02:52:02;;;;;;;37.25;28.20;;;17.90;1.00;;;;;;5047578;28;20390;-68
2022/10/19 02:54:28;;;;;;;39.67;28.52;;;17.90;1.00;;;;;;5060083;28;20490;-68
2022/10/19 02:56:54;;;;;;;35.03;27.83;;;17.90;1.00;;;;;;5053715;28;20076;-68
2022/10/19 02:59:20;;;;;;;37.35;28.75;;;17.90;1.00;;;;;;5054923;28;20400;-68
2022/10/19 03:01:46;;;;;;;37.22;27.25;;;17.90;1.00;;;;;;5054024;28;20093;-67
2022/10/19 03:04:12;;;;;;;37.10;27.77;;;17.90;1.00;;;;;;5036020;28;20018;-68
2022/10/19 03:06:37;;;;;;;37.28;29.17;;;17.90;1.00;;;;;;5040702;28;20054;-68
2022/10/19 03:09:03;;;;;;;38.97;27.13;;;17.80;1.00;;;;;;5053506;28;20402;-68
2022/10/19 03:11:29;;;;;;;37.83;28.58;;;17.80;1.00;;;;;;5053681;28;20033;-67
2022/10/19 03:13:54;;;;;;;38.85;28.13;;;17.80;1.00;;;;;;5038314;28;20040;-67
2022/10/19 03:16:20;;;;;;;38.78;27.80;;;17.80;1.00;;;;;;5049047;28;20033;-68
2022/10/19 03:18:48;;;;;;;31.90;26.55;;;17.80;1.00;;;;;;5054431;28;20418;-68
2022/10/19 03:21:13;;;;;;;34.10;27.35;;;17.80;1.00;;;;;;5053890;28;20116;-67
2022/10/19 03:23:39;;;;;;;38.38;27.48;;;17.80;1.00;;;;;;5054339;28;20520;-68
2022/10/19 03:26:06;;;;;;;35.67;28.80;;;17.80;1.00;;;;;;5053475;28;20360;-69
2022/10/19 03:28:32;;;;;;;35.60;28.25;;;17.80;1.00;;;;;;5040270;28;20026;-69
2022/10/19 03:30:58;;;;;;;35.60;27.67;;;17.80;1.00;;;;;;5054294;28;20029;-68
2022/10/19 03:33:24;;;;;;;38.10;28.40;;;17.70;1.00;;;;;;5053916;28;20029;-69
2022/10/19 03:35:50;;;;;;;37.10;27.98;;;17.70;1.00;;;;;;5047945;28;20041;-69
2022/10/19 03:38:15;;;;;;;33.15;26.15;;;17.70;1.00;;;;;;5051812;28;20099;-69
2022/10/19 03:40:41;;;;;;;38.25;28.38;;;17.70;1.00;;;;;;5048608;28;20031;-69
2022/10/19 03:43:07;;;;;;;38.58;28.90;;;17.70;1.00;;;;;;5052938;28;20104;-69
2022/10/19 03:45:32;;;;;;;36.10;26.77;;;17.70;1.00;;;;;;5054248;28;20094;-69
2022/10/19 03:47:58;;;;;;;34.85;26.30;;;17.70;1.00;;;;;;5056710;28;20536;-68
2022/10/19 03:50:23;;;;;;;37.45;28.55;;;17.70;1.00;;;;;;5054024;28;20021;-67
2022/10/19 03:52:49;;;;;;;33.22;26.10;;;17.70;1.00;;;;;;5044576;28;20381;-67
2022/10/19 03:55:15;;;;;;;30.55;24.83;;;17.70;1.00;;;;;;5053992;28;20108;-67
2022/10/19 03:57:41;;;;;;;37.15;27.05;;;17.70;1.00;;;;;;5052570;28;20068;-67
2022/10/19 04:00:09;;;;;;;33.85;26.00;;;17.70;1.00;;;;;;5053668;28;20029;-67
2022/10/19 04:02:34;;;;;;;34.13;25.98;;;17.60;1.00;;;;;;5047585;28;20034;-68
2022/10/19 04:05:00;;;;;;;32.83;25.00;;;17.60;1.00;;;;;;5037841;28;20091;-68
2022/10/19 04:07:26;;;;;;;32.17;25.58;;;17.60;1.00;;;;;;5048258;28;20493;-67
2022/10/19 04:09:51;;;;;;;32.38;25.65;;;17.60;1.00;;;;;;5053806;28;20414;-68
2022/10/19 04:12:17;;;;;;;30.35;23.48;;;17.60;1.00;;;;;;5051096;28;20040;-67
2022/10/19 04:14:42;;;;;;;34.90;27.23;;;17.60;1.00;;;;;;5051418;28;20071;-67
2022/10/19 04:17:09;;;;;;;31.48;24.45;;;17.60;1.00;;;;;;5052628;28;20040;-68
2022/10/19 04:19:35;;;;;;;30.90;25.08;;;17.60;1.00;;;;;;5053379;28;20029;-67
2022/10/19 04:22:01;;;;;;;34.70;24.30;;;17.60;1.00;;;;;;5046664;28;20471;-67
2022/10/19 04:24:27;;;;;;;27.52;23.13;;;17.60;1.00;;;;;;5046387;28;20056;-67
2022/10/19 04:26:54;;;;;;;29.08;23.85;;;17.50;1.00;;;;;;5052120;28;20035;-68
2022/10/19 04:29:22;;;;;;;33.72;25.98;;;17.60;1.00;;;;;;5053241;28;20082;-67
2022/10/19 04:31:49;;;;;;;30.98;23.30;;;17.50;1.00;;;;;;5046911;28;20059;-67
2022/10/19 04:34:15;;;;;;;29.20;23.42;;;17.50;1.00;;;;;;5051776;28;20135;-67
2022/10/19 04:36:41;;;;;;;29.75;24.02;;;17.50;1.00;;;;;;5062535;28;20064;-67
2022/10/19 04:39:07;;;;;;;29.42;24.58;;;17.50;1.00;;;;;;5053002;28;20024;-68
2022/10/19 04:41:33;;;;;;;30.38;22.60;;;17.50;1.00;;;;;;5050995;28;20017;-67
2022/10/19 04:44:01;;;;;;;30.15;24.48;;;17.50;1.00;;;;;;5053061;28;20044;-68
2022/10/19 04:46:28;;;;;;;29.45;23.48;;;17.50;1.00;;;;;;5052160;28;20458;-68
2022/10/19 04:48:55;;;;;;;29.77;23.67;;;17.50;1.00;;;;;;5052863;28;20055;-68
2022/10/19 04:51:21;;;;;;;29.20;21.33;;;17.50;1.00;;;;;;5052664;28;20025;-68
2022/10/19 04:53:47;;;;;;;33.50;23.58;;;17.50;1.00;;;;;;5052377;28;20039;-68
2022/10/19 04:56:24;;;;;;;27.88;22.98;;;17.50;1.00;;;;;;5052114;28;20040;-68
2022/10/19 04:58:52;;;;;;;27.75;23.35;;;17.40;1.00;;;;;;5049399;28;20040;-68
2022/10/19 05:01:20;;;;;;;28.73;22.92;;;17.40;1.00;;;;;;5051561;28;20021;-68
2022/10/19 05:03:47;;;;;;;27.23;22.42;;;17.40;1.00;;;;;;5033691;28;20056;-68
2022/10/19 05:06:14;;;;;;;32.88;23.42;;;17.40;1.00;;;;;;5032772;28;20018;-68
2022/10/19 05:08:40;;;;;;;27.95;23.20;;;17.40;1.00;;;;;;5050799;28;20029;-68
2022/10/19 05:11:11;;;;;;;28.58;23.73;;;17.40;1.00;;;;;;5051798;28;20025;-68
2022/10/19 05:13:37;;;;;;;28.17;23.42;;;17.40;1.00;;;;;;5051563;28;20036;-67
2022/10/19 05:16:05;;;;;;;31.80;22.52;;;17.40;1.00;;;;;;5066174;28;20548;-68
2022/10/19 05:18:32;;;;;;;32.10;22.23;;;17.40;1.00;;;;;;5047341;28;20160;-68
2022/10/19 05:21:01;;;;;;;29.83;23.98;;;17.40;1.00;;;;;;5034897;28;20034;-68
2022/10/19 05:23:28;;;;;;;32.65;23.35;;;17.40;1.00;;;;;;5049777;28;20033;-68
2022/10/19 05:26:08;;;;;;;34.70;24.98;;;17.40;1.00;;;;;;5050982;28;20356;-68
2022/10/19 05:29:03;;;;;;;34.25;24.92;;;17.40;1.00;;;;;;5056318;28;20561;-68
2022/10/19 05:31:31;;;;;;;36.42;24.90;;;17.40;1.00;;;;;;5052277;28;20024;-68
2022/10/19 05:33:57;;;;;;;36.42;25.75;;;17.40;1.00;;;;;;5054732;28;20033;-67
2022/10/19 05:36:35;;;;;;;34.20;26.35;;;17.40;1.00;;;;;;5055200;28;20482;-66
2022/10/19 05:39:08;;;;;;;37.83;27.95;;;17.30;1.00;;;;;;5054048;28;20458;-68
2022/10/19 05:41:34;;;;;;;36.22;27.02;;;17.30;1.00;;;;;;5056207;28;20017;-67
2022/10/19 05:44:01;;;;;;;38.35;25.95;;;17.30;1.00;;;;;;5060858;28;20072;-67
2022/10/19 05:46:29;;;;;;;38.60;27.48;;;17.40;1.00;;;;;;5056166;28;20114;-67
2022/10/19 05:48:56;;;;;;;40.50;28.80;;;17.40;1.00;;;;;;5050926;28;20025;-67
2022/10/19 05:51:22;;;;;;;41.63;28.20;;;17.30;1.00;;;;;;5056009;28;20092;-67
2022/10/19 05:53:48;;;;;;;37.53;26.50;;;17.40;1.00;;;;;;5048210;28;20032;-67
2022/10/19 05:56:25;;;;;;;38.95;27.67;;;17.40;1.00;;;;;;5049129;28;20041;-67
2022/10/19 05:58:52;;;;;;;39.03;27.77;;;17.40;1.00;;;;;;5042776;28;20028;-67
2022/10/19 06:01:18;;;;;;;36.03;24.60;;;17.40;1.00;;;;;;5055894;28;20108;-68
2022/10/19 06:03:46;;;;;;;32.78;25.85;;;17.40;1.00;;;;;;5054738;28;20364;-67
2022/10/19 06:06:11;;;;;;;35.58;25.33;;;17.30;1.00;;;;;;5055845;28;20031;-67
2022/10/19 06:08:38;;;;;;;32.55;24.40;;;17.40;1.00;;;;;;5055248;28;20028;-67
2022/10/19 06:11:08;;;;;;;30.20;23.08;;;17.40;1.00;;;;;;5055749;28;20033;-67
2022/10/19 06:13:34;;;;;;;35.38;24.40;;;17.40;1.00;;;;;;5054300;28;20127;-67
2022/10/19 06:16:00;;;;;;;40.00;28.17;;;17.40;1.00;;;;;;5055674;28;20029;-67
2022/10/19 06:18:25;;;;;;;35.90;25.75;;;17.30;1.00;;;;;;5046872;28;20030;-67
2022/10/19 06:20:52;;;;;;;34.70;26.40;;;17.30;1.00;;;;;;5051217;28;20541;-67
2022/10/19 06:23:18;;;;;;;36.22;26.70;;;17.40;1.00;;;;;;5053438;28;20347;-67
2022/10/19 06:25:44;;;;;;;38.08;28.27;;;17.40;1.00;;;;;;5055450;28;20029;-67
2022/10/19 06:28:10;;;;;;;39.47;27.88;;;17.40;1.00;;;;;;5053565;28;20051;-67
2022/10/19 06:30:39;;;;;;;44.58;31.00;;;17.40;1.00;;;;;;5057994;28;20036;-67
2022/10/19 06:33:05;;;;;;;42.33;30.08;;;17.40;1.00;;;;;;5054306;28;20060;-67
2022/10/19 06:35:31;;;;;;;39.83;29.50;;;17.50;1.00;;;;;;5057733;28;20053;-68
2022/10/19 06:37:57;;;;;;;48.25;29.55;;;17.40;1.00;;;;;;5065159;28;20108;-67
2022/10/19 06:40:23;;;;;;;39.13;27.17;;;17.40;1.00;;;;;;5055069;28;20393;-67
2022/10/19 06:42:49;;;;;;;40.95;28.27;;;17.50;1.00;;;;;;5054387;28;20479;-67
2022/10/19 06:45:15;;;;;;;38.95;28.30;;;17.50;1.00;;;;;;5042017;28;20032;-68
2022/10/19 06:47:40;;;;;;;40.05;28.45;;;17.50;1.00;;;;;;5053959;28;20029;-68
2022/10/19 06:50:07;;;;;;;42.40;27.85;;;17.50;1.00;;;;;;5049831;28;20037;-68
2022/10/19 06:52:33;;;;;;;42.90;27.45;;;17.50;1.00;;;;;;5055019;28;20375;-67
2022/10/19 06:54:59;;;;;;;38.40;26.13;;;17.50;1.00;;;;;;5048565;28;20033;-68
2022/10/19 06:57:25;;;;;;;35.75;25.88;;;17.50;1.00;;;;;;5054886;28;20036;-67
2022/10/19 06:59:50;;;;;;;37.97;26.92;;;17.50;1.00;;;;;;5046504;28;20544;-67
2022/10/19 07:02:16;;;;;;;39.45;26.60;;;17.60;1.00;;;;;;5054183;28;20119;-68
2022/10/19 07:04:42;;;;;;;45.08;26.15;;;17.60;1.00;;;;;;5049714;28;20021;-67
2022/10/19 07:07:07;;;;;;;35.92;26.58;;;17.60;1.00;;;;;;5054767;28;20025;-67
2022/10/19 07:09:33;;;;;;;37.83;25.88;;;17.70;1.00;;;;;;5053515;28;20048;-67
2022/10/19 07:11:59;;;;;;;42.70;26.75;;;17.70;1.00;;;;;;5053395;28;20033;-67
2022/10/19 07:14:27;;;;;;;37.05;25.70;;;17.60;1.00;;;;;;5053613;28;20135;-67
2022/10/19 07:16:53;;;;;;;39.92;27.45;;;17.70;1.00;;;;;;5053689;28;20033;-67
2022/10/19 07:19:19;;;;;;;42.40;25.50;;;17.70;1.00;;;;;;5052389;28;20398;-67
2022/10/19 07:21:45;;;;;;;44.95;28.23;;;17.70;1.00;;;;;;5054430;28;20025;-67
2022/10/19 07:24:11;;;;;;;38.50;27.48;;;17.80;1.00;;;;;;5053297;28;20096;-68
2022/10/19 07:26:37;;;;;;;42.40;29.13;;;17.80;1.00;;;;;;5054344;28;20058;-67
2022/10/19 07:29:03;;;;;;;35.50;27.30;;;17.80;1.00;;;;;;5053015;28;20103;-68
2022/10/19 07:31:29;;;;;;;40.72;29.52;;;17.80;1.00;;;;;;5052528;28;20485;-67
2022/10/19 07:33:57;;;;;;;42.22;28.83;;;17.80;1.00;;;;;;5053684;28;20025;-69
2022/10/19 07:36:24;;;;;;;39.15;30.25;;;17.90;1.00;;;;;;5054164;28;20055;-68
2022/10/19 07:38:50;;;;;;;42.30;28.27;;;17.90;1.00;;;;;;5045431;28;20498;-67
2022/10/19 07:41:19;;;;;;;40.13;28.80;;;17.90;1.00;;;;;;5048622;28;20032;-67
2022/10/19 07:43:45;;;;;;;44.78;29.20;;;17.90;1.00;;;;;;5053097;28;20029;-68
2022/10/19 07:46:14;;;;;;;45.78;30.10;;;17.90;1.00;;;;;;5052711;28;20033;-67
2022/10/19 07:48:40;;;;;;;41.83;29.50;;;18.00;1.00;;;;;;5053245;28;20025;-68
2022/10/19 07:51:07;;;;;;;42.47;30.33;;;18.00;1.00;;;;;;5053879;28;20044;-67
2022/10/19 07:53:34;;;;;;;48.50;30.95;;;18.00;1.00;;;;;;5047539;28;20426;-68
2022/10/19 07:56:11;;;;;;;41.67;30.60;;;18.00;1.00;;;;;;5041803;28;20064;-67
2022/10/19 07:58:37;;;;;;;42.75;28.83;;;18.00;1.00;;;;;;5047978;28;20043;-69
2022/10/19 08:01:06;;;;;;;43.72;31.77;;;18.10;1.00;;;;;;5042002;28;20036;-69
2022/10/19 08:03:32;;;;;;;45.65;32.95;;;18.10;1.00;;;;;;5044143;28;20033;-69
2022/10/19 08:06:00;;;;;;;44.45;30.85;;;18.10;1.00;;;;;;5053522;28;20021;-69
2022/10/19 08:08:26;;;;;;;42.58;29.38;;;18.10;1.00;;;;;;5052998;28;20112;-68
2022/10/19 08:10:51;;;;;;;45.35;31.80;;;18.20;1.00;;;;;;5053471;28;20109;-68
2022/10/19 08:13:17;;;;;;;43.38;35.83;;;18.20;1.00;;;;;;5049119;28;20025;-68
2022/10/19 08:15:42;;;;;;;96.57;36.55;;;18.20;1.00;;;;;;5041402;28;20597;-69
2022/10/19 08:18:08;;;;;;;52.25;32.88;;;18.20;1.00;;;;;;5053705;28;20036;-69
2022/10/19 08:20:34;;;;;;;43.47;30.73;;;18.20;1.00;;;;;;5052319;28;20033;-69
2022/10/19 08:23:00;;;;;;;34.65;26.05;;;18.30;1.00;;;;;;5067966;28;20025;-69
2022/10/19 08:25:26;;;;;;;38.28;24.90;;;18.30;1.00;;;;;;5052533;28;20016;-69
2022/10/19 08:27:52;;;;;;;36.83;24.52;;;18.30;1.00;;;;;;5053210;28;20544;-69
2022/10/19 08:30:17;;;;;;;34.53;23.40;;;18.40;1.00;;;;;;5052420;28;20029;-68
2022/10/19 08:32:43;;;;;;;32.50;24.02;;;18.40;1.00;;;;;;5039509;28;20034;-69
2022/10/19 08:35:09;;;;;;;35.65;23.67;;;18.40;1.00;;;;;;5044443;28;20467;-68
2022/10/19 08:37:34;;;;;;;34.63;24.27;;;18.40;1.00;;;;;;5043400;28;20082;-68
2022/10/19 08:40:00;;;;;;;28.63;22.50;;;18.40;1.00;;;;;;5052200;28;20063;-68
2022/10/19 08:42:46;;;;;;;30.00;22.73;;;18.50;1.00;;;;;;5053075;28;20090;-68
2022/10/19 08:45:33;;;;;;;33.05;24.15;;;18.50;1.00;;;;;;5037629;28;20076;-69
2022/10/19 08:48:03;;;;;;;35.95;24.63;;;18.50;1.00;;;;;;5047132;28;20036;-69
2022/10/19 08:50:39;;;;;;;33.88;24.60;;;18.50;1.00;;;;;;5051903;28;20490;-70
2022/10/19 08:53:43;;;;;;;32.33;24.98;;;18.50;1.00;;;;;;5051850;28;20558;-69
2022/10/19 08:56:17;;;;;;;30.40;21.95;;;18.60;1.00;;;;;;5033579;28;20038;-69
2022/10/19 08:59:07;;;;;;;28.90;22.67;;;18.60;1.00;;;;;;5051535;28;20033;-69
2022/10/19 09:01:50;;;;;;;31.63;22.70;;;18.60;1.00;;;;;;5038250;28;20034;-70
2022/10/19 09:04:49;;;;;;;33.25;22.42;;;18.70;1.00;;;;;;5041032;28;20581;-69
2022/10/19 09:07:31;;;;;;;33.78;22.63;;;18.70;1.00;;;;;;5041949;28;20037;-69
2022/10/19 09:10:03;;;;;;;31.33;22.65;;;18.70;1.00;;;;;;5055982;28;20052;-69
2022/10/19 09:13:00;;;;;;;30.10;23.13;;;18.70;1.00;;;;;;5057385;28;20027;-69
2022/10/19 09:15:38;;;;;;;34.85;22.80;;;18.80;1.00;;;;;;5034727;28;20475;-69
2022/10/19 09:18:18;;;;;;;36.05;22.85;;;18.80;1.00;;;;;;5057176;28;20041;-69
2022/10/19 09:20:47;;;;;;;31.27;23.08;;;18.90;1.00;;;;;;5052851;28;20368;-70
2022/10/19 09:23:47;;;;;;;33.92;23.02;;;18.90;1.00;;;;;;5046730;28;20478;-70
2022/10/19 09:26:24;;;;;;;31.90;24.10;;;18.90;1.00;;;;;;5013957;28;20021;-69
2022/10/19 09:29:13;;;;;;;33.17;23.35;;;19.00;1.00;;;;;;5050093;28;20084;-69
2022/10/19 09:31:44;;;;;;;30.52;23.17;;;19.00;1.00;;;;;;5052198;28;20470;-70
2022/10/19 09:34:19;;;;;;;33.13;23.45;;;19.00;1.00;;;;;;5044815;28;20025;-70
2022/10/19 09:36:51;;;;;;;33.35;24.50;;;19.10;1.00;;;;;;5049864;28;20072;-70
2022/10/19 09:39:18;;;;;;;33.83;24.85;;;19.10;1.00;;;;;;5049024;28;20046;-70
2022/10/19 09:41:51;;;;;;;33.33;23.80;;;19.20;1.00;;;;;;5054057;28;20121;-70
2022/10/19 09:44:17;;;;;;;35.35;23.42;;;19.20;1.00;;;;;;5056645;28;20378;-70
2022/10/19 09:46:51;;;;;;;35.95;22.67;;;19.20;1.00;;;;;;5037802;28;20068;-70
2022/10/19 09:49:18;;;;;;;37.55;25.80;;;19.30;1.00;;;;;;5046929;28;20021;-70
2022/10/19 09:51:50;;;;;;;40.85;25.58;;;19.30;1.00;;;;;;5055182;28;20044;-70
2022/10/19 09:54:32;;;;;;;36.35;25.88;;;19.40;1.00;;;;;;5054131;28;20047;-70
2022/10/19 09:56:57;;;;;;;39.00;27.00;;;19.40;1.00;;;;;;5054307;28;20048;-70
2022/10/19 09:59:27;;;;;;;39.15;28.02;;;19.40;1.00;;;;;;5056030;28;20024;-70
2022/10/19 10:02:32;;;;;;;38.90;26.52;;;19.40;1.00;;;;;;5043635;28;20509;-70
2022/10/19 10:05:13;;;;;;;36.85;26.80;;;19.50;1.00;;;;;;5048869;28;20051;-70
2022/10/19 10:07:40;;;;;;;36.42;26.13;;;19.50;1.00;;;;;;5055821;28;20417;-70
2022/10/19 10:10:36;;;;;;;33.78;27.08;;;19.60;1.00;;;;;;5053817;28;20037;-69
2022/10/19 10:13:02;;;;;;;38.15;27.52;;;19.60;1.00;;;;;;5054686;28;20041;-70
2022/10/19 10:15:41;;;;;;;38.38;29.25;;;19.60;1.00;;;;;;5048557;28;20095;-69
2022/10/19 10:18:14;;;;;;;42.20;28.73;;;19.70;1.00;;;;;;5041777;28;20074;-69
2022/10/19 10:20:55;;;;;;;40.60;29.67;;;19.70;1.00;;;;;;5054300;28;20033;-69
2022/10/19 10:23:27;;;;;;;47.38;30.08;;;19.70;1.00;;;;;;5043460;28;20114;-69
2022/10/19 10:25:58;;;;;;;40.60;29.73;;;19.90;1.00;;;;;;5054529;28;20029;-71
2022/10/19 10:28:27;;;;;;;39.40;28.92;;;19.90;1.00;;;;;;5055795;28;20028;-73
2022/10/19 10:31:05;;;;;;;36.92;28.65;;;19.90;1.00;;;;;;5053212;28;20035;-72
2022/10/19 10:33:34;;;;;;;42.03;28.73;;;19.90;1.00;;;;;;5035562;28;20105;-72
2022/10/19 10:36:07;;;;;;;40.88;30.42;;;20.10;1.00;;;;;;5035446;28;20033;-71
2022/10/19 10:38:45;;;;;;;42.40;29.75;;;20.00;1.00;;;;;;5041777;28;20033;-72
2022/10/19 10:41:22;;;;;;;43.35;30.80;;;20.10;1.00;;;;;;5043879;28;20406;-69
2022/10/19 10:44:05;;;;;;;46.30;31.55;;;20.10;1.00;;;;;;5036313;28;20470;-71
2022/10/19 10:46:49;;;;;;;45.92;32.35;;;20.10;1.00;;;;;;5037308;28;20494;-70
2022/10/19 10:49:36;;;;;;;44.95;33.70;;;20.20;1.00;;;;;;5054100;28;20020;-70
2022/10/19 10:52:08;;;;;;;41.08;32.13;;;20.20;1.00;;;;;;5050929;28;20481;-71
2022/10/19 10:54:34;;;;;;;44.08;32.63;;;20.30;1.00;;;;;;5045729;28;20029;-70
2022/10/19 10:57:20;;;;;;;48.95;33.40;;;20.30;1.00;;;;;;5038044;28;20163;-70
2022/10/19 10:59:58;;;;;;;44.08;34.08;;;20.40;1.00;;;;;;5043632;28;20509;-69
2022/10/19 11:02:34;;;;;;;43.22;32.28;;;20.40;1.00;;;;;;5051784;28;20078;-70
2022/10/19 11:05:21;;;;;;;44.92;34.40;;;20.40;1.00;;;;;;5042933;28;20025;-70
2022/10/19 11:07:52;;;;;;;43.95;33.83;;;20.50;1.00;;;;;;5052575;28;20158;-70
2022/10/19 11:10:35;;;;;;;46.20;34.00;;;20.50;1.00;;;;;;5054162;28;20082;-69
2022/10/19 11:13:16;;;;;;;45.65;33.90;;;20.50;1.00;;;;;;5054518;28;20031;-69
2022/10/19 11:15:56;;;;;;;46.63;35.67;;;20.60;1.00;;;;;;5052646;28;20518;-69
2022/10/19 11:19:00;;;;;;;50.97;35.28;;;20.70;1.00;;;;;;5054775;28;20120;-69
2022/10/19 11:21:40;;;;;;;51.83;35.58;;;20.70;1.00;;;;;;5003755;28;20033;-69
2022/10/19 11:24:42;;;;;;;48.60;36.80;;;20.60;1.00;;;;;;5049924;28;20083;-69
2022/10/19 11:27:28;;;;;;;50.42;36.55;;;20.80;1.00;;;;;;5046379;28;20111;-69
2022/10/19 11:30:26;;;;;;;48.85;36.58;;;20.90;1.00;;;;;;5053731;28;20037;-70
2022/10/19 11:33:14;;;;;;;50.80;36.92;;;20.80;1.00;;;;;;5051176;28;20120;-70
2022/10/19 11:35:43;;;;;;;47.80;36.42;;;20.90;1.00;;;;;;5054034;28;20082;-70
2022/10/19 11:38:34;;;;;;;53.00;38.50;;;21.00;1.00;;;;;;5053845;28;20040;-70
2022/10/19 11:41:18;;;;;;;49.10;38.50;;;21.00;1.00;;;;;;5041289;28;20483;-70
2022/10/19 11:43:52;;;;;;;54.95;38.40;;;21.10;1.00;;;;;;5054017;28;20112;-70
2022/10/19 11:46:30;;;;;;;54.20;38.20;;;21.10;1.00;;;;;;5057640;28;20031;-70
2022/10/19 11:49:31;;;;;;;51.28;39.70;;;21.20;1.00;;;;;;5053971;28;20424;-69
2022/10/19 11:52:15;;;;;;;53.45;40.45;;;21.20;1.00;;;;;;5039396;28;20488;-70
2022/10/19 11:54:59;;;;;;;47.38;36.15;;;21.30;1.00;;;;;;5059519;28;20037;-69
2022/10/19 11:57:31;;;;;;;52.23;38.17;;;21.30;1.00;;;;;;5052626;28;20040;-69
2022/10/19 12:00:17;;;;;;;52.03;37.58;;;21.30;1.00;;;;;;5053308;28;20029;-70
2022/10/19 12:03:17;;;;;;;50.15;35.20;;;21.40;1.00;;;;;;5052761;28;20047;-70
2022/10/19 12:06:01;;;;;;;49.38;36.60;;;21.50;1.00;;;;;;5053545;28;20031;-69
2022/10/19 12:08:27;;;;;;;;;;;21.60;1.00;;;;;;5044672;28;20032;-69
2022/10/19 12:11:22;;;;;;;53.28;37.08;;;21.60;1.00;;;;;;5051636;28;19905;-71
2022/10/19 12:13:54;;;;;;;53.10;40.50;;;21.70;1.00;;;;;;5044346;28;20041;-68
2022/10/19 12:16:23;;;;;;;51.67;38.85;;;21.80;1.00;;;;;;5051947;28;20112;-69
2022/10/19 12:18:54;;;;;;;49.80;36.53;;;21.90;1.00;;;;;;5052545;28;20049;-69
2022/10/19 12:21:29;;;;;;;49.35;35.53;;;21.90;1.00;;;;;;5052676;28;20044;-69
2022/10/19 12:23:59;;;;;;;49.15;36.83;;;21.90;1.00;;;;;;5052519;28;20446;-69
2022/10/19 12:26:29;;;;;;;46.45;34.30;;;21.90;1.00;;;;;;5049483;28;20025;-69
2022/10/19 12:29:06;;;;;;;52.38;38.30;;;21.90;1.00;;;;;;5044149;28;20056;-69
2022/10/19 12:31:32;;;;;;;46.95;37.03;;;22.00;1.00;;;;;;5048473;28;20025;-70
2022/10/19 12:34:27;;;;;;;47.25;35.13;;;22.10;1.00;;;;;;5043818;28;20032;-69
2022/10/19 12:37:08;;;;;;;49.45;35.08;;;22.10;1.00;;;;;;5038281;28;20391;-69
2022/10/19 12:39:57;;;;;;;45.15;35.55;;;22.10;1.00;;;;;;5051745;28;20063;-68
2022/10/19 12:42:52;;;;;;;42.60;33.33;;;22.20;1.00;;;;;;5050644;28;20096;-70
2022/10/19 12:45:26;;;;;;;44.63;33.38;;;22.20;1.00;;;;;;5052695;28;20098;-69
2022/10/19 12:48:07;;;;;;;;;;;22.20;1.00;;;;;;5051737;28;20037;-69
2022/10/19 12:50:48;;;;;;;40.35;31.75;;;22.30;1.00;;;;;;5050364;28;19916;-69
2022/10/19 12:53:25;;;;;;;40.70;31.20;;;22.30;1.00;;;;;;5047969;28;20479;-69
2022/10/19 12:56:19;;;;;;;40.38;33.45;;;22.40;1.00;;;;;;5052820;28;20032;-70
2022/10/19 12:58:51;;;;;;;43.85;32.83;;;22.40;1.00;;;;;;5050356;28;20099;-69
2022/10/19 13:01:25;;;;;;;40.33;31.73;;;22.40;1.00;;;;;;5047601;28;20040;-69